Pagina principale
METAR-TAF:

METAR-TAF

Aeroporti :

Aeroporto di Dortmund

Dortmund, Germania

latitudine: 51-31N, longitudine: 007-37E, altezza: 127 m

Osservazione

Il bollettino è stato emesso 15 minuti fa, alle 17:20 UTC
Vento 7 kt da est/nord-est
Temperature 20°C
Umidità 40%
Pressione 1022 hPa
Visibilità 10 km o più

METAR: EDLW 311720Z AUTO 06007KT 9999 // NCD 20/06 Q1022

Ora: 19:35 (17:35 UTC)

Previsione

Il bollettino è stato emesso 6 ore e 35 minuti fa, alle 11:00 UTC
Previsione valida dal 31 alle 12 UTC al 01 alle 12 UTC
Vento 10 kt da est/nord-est
Visibilità 10 km o più
nessuna nube inferiore a 1500 m e nessun cumulonembo
Evoluzione graduale
dal 31 alle 18 UTC al 31 alle 20 UTC
Vento 4 kt da nord-est
Evoluzione graduale
dal 01 alle 07 UTC al 01 alle 10 UTC
Vento 10 kt da est/nord-est

TAF: EDLW 311100Z 3112/0112 07010KT CAVOK BECMG 3118/3120 05004KT BECMG 0107/0110 07010KT

Osservazioni e previsioni meteorologiche di più di 4000 aeroporti (messaggi METAR e TAF).

Le stazioni disponibili sono rappresentate dai dischi gialli e rossi sulla carta.

Puntare il mouse per vedere il nome della stazione.

Clicca sopra per visualizzare le osservazioni e previsioni meteorologiche.

Per cambiare la mappa : fare clic sui pulsanti verdi con una croce nera per ingrandire, il pulsante verde con un trattino per diminuire, o sulla freccia verde per le mappe adiacenti.


METAR-TAF: